Sandy, Minnesota
Current Conditions -  °F | °C
As of 9:54 AM on Saturday 20 Dec 2014 (Local Time) from KCQM Reporting Station
Light Snow Light Snow  
Wind Chill: 27°   Ceiling: 900
Heat Index: 27°   Visibility: 2mi
Dew Point: 25°   Wind: 3mph
Humidity: 93%   Direction: 150°SSE
Pressure: 30.07"   Gusts: NA
Location:  47.6419°N, 92.5334°W
Report Text: KCQM 201554Z AUTO 15003KT 2SM -SN OVC009 M03/M04 A3007 RMK AO2
Loading
Personal Weather Stations






























Interactive Weather Map New forecast layout! Learn more

10-Day Weather Forecast

Advertisements
Track Severe Weather on mobile